sensor_id;sensor_type;location;lat;lon;timestamp;P1;durP1;ratioP1;P2;durP2;ratioP2
74369;SDS011;62805;44.644;10.942;2023-03-12T00:00:33;24.50;;;10.07;;
74369;SDS011;62805;44.644;10.942;2023-03-12T00:02:58;18.65;;;8.93;;
74369;SDS011;62805;44.644;10.942;2023-03-12T00:05:23;20.95;;;8.65;;
74369;SDS011;62805;44.644;10.942;2023-03-12T00:07:50;21.25;;;9.60;;
74369;SDS011;62805;44.644;10.942;2023-03-12T00:10:16;21.23;;;8.27;;
74369;SDS011;62805;44.644;10.942;2023-03-12T00:12:41;22.05;;;9.23;;
74369;SDS011;62805;44.644;10.942;2023-03-12T00:15:07;25.33;;;8.70;;
74369;SDS011;62805;44.644;10.942;2023-03-12T00:17:33;19.52;;;8.40;;
74369;SDS011;62805;44.644;10.942;2023-03-12T00:19:58;23.83;;;8.73;;
74369;SDS011;62805;44.644;10.942;2023-03-12T00:22:24;23.67;;;8.43;;
74369;SDS011;62805;44.644;10.942;2023-03-12T00:24:50;19.63;;;8.25;;
74369;SDS011;62805;44.644;10.942;2023-03-12T00:27:16;20.10;;;7.85;;
74369;SDS011;62805;44.644;10.942;2023-03-12T00:29:41;22.88;;;8.02;;
74369;SDS011;62805;44.644;10.942;2023-03-12T00:32:07;17.87;;;7.33;;
74369;SDS011;62805;44.644;10.942;2023-03-12T00:34:32;23.50;;;8.07;;
74369;SDS011;62805;44.644;10.942;2023-03-12T00:36:58;22.63;;;7.65;;
74369;SDS011;62805;44.644;10.942;2023-03-12T00:39:23;16.07;;;7.00;;
74369;SDS011;62805;44.644;10.942;2023-03-12T00:41:48;20.95;;;6.85;;
74369;SDS011;62805;44.644;10.942;2023-03-12T00:44:14;18.73;;;6.85;;
74369;SDS011;62805;44.644;10.942;2023-03-12T00:46:39;19.23;;;7.07;;
74369;SDS011;62805;44.644;10.942;2023-03-12T00:49:04;17.27;;;6.33;;
74369;SDS011;62805;44.644;10.942;2023-03-12T00:51:30;18.48;;;6.55;;
74369;SDS011;62805;44.644;10.942;2023-03-12T00:53:55;15.00;;;5.87;;
74369;SDS011;62805;44.644;10.942;2023-03-12T00:56:21;20.55;;;6.10;;
74369;SDS011;62805;44.644;10.942;2023-03-12T00:58:46;19.77;;;6.70;;
74369;SDS011;62805;44.644;10.942;2023-03-12T01:01:12;16.40;;;6.50;;
74369;SDS011;62805;44.644;10.942;2023-03-12T01:03:37;18.30;;;5.70;;
74369;SDS011;62805;44.644;10.942;2023-03-12T01:06:03;17.37;;;6.33;;
74369;SDS011;62805;44.644;10.942;2023-03-12T01:08:29;15.73;;;6.78;;
74369;SDS011;62805;44.644;10.942;2023-03-12T01:10:54;17.42;;;6.25;;
74369;SDS011;62805;44.644;10.942;2023-03-12T01:13:19;21.40;;;6.97;;
74369;SDS011;62805;44.644;10.942;2023-03-12T01:15:45;16.05;;;5.68;;
74369;SDS011;62805;44.644;10.942;2023-03-12T01:18:10;13.82;;;5.18;;
74369;SDS011;62805;44.644;10.942;2023-03-12T01:20:36;14.23;;;5.67;;
74369;SDS011;62805;44.644;10.942;2023-03-12T01:23:01;15.77;;;6.20;;
74369;SDS011;62805;44.644;10.942;2023-03-12T01:25:27;14.45;;;5.90;;
74369;SDS011;62805;44.644;10.942;2023-03-12T01:27:52;15.60;;;5.40;;
74369;SDS011;62805;44.644;10.942;2023-03-12T01:30:19;19.67;;;7.00;;
74369;SDS011;62805;44.644;10.942;2023-03-12T01:32:44;18.67;;;6.95;;
74369;SDS011;62805;44.644;10.942;2023-03-12T01:35:09;20.23;;;6.93;;
74369;SDS011;62805;44.644;10.942;2023-03-12T01:37:35;21.08;;;7.88;;
74369;SDS011;62805;44.644;10.942;2023-03-12T01:40:00;14.23;;;6.97;;
74369;SDS011;62805;44.644;10.942;2023-03-12T01:42:25;21.92;;;8.18;;
74369;SDS011;62805;44.644;10.942;2023-03-12T01:44:58;14.73;;;6.50;;
74369;SDS011;62805;44.644;10.942;2023-03-12T01:47:25;18.33;;;7.53;;
74369;SDS011;62805;44.644;10.942;2023-03-12T01:49:51;19.20;;;7.15;;
74369;SDS011;62805;44.644;10.942;2023-03-12T01:52:25;19.85;;;7.07;;
74369;SDS011;62805;44.644;10.942;2023-03-12T01:55:08;24.08;;;8.77;;
74369;SDS011;62805;44.644;10.942;2023-03-12T01:57:49;21.17;;;8.50;;
74369;SDS011;62805;44.644;10.942;2023-03-12T02:00:17;20.77;;;8.93;;
74369;SDS011;62805;44.644;10.942;2023-03-12T02:02:49;20.70;;;8.68;;
74369;SDS011;62805;44.644;10.942;2023-03-12T02:05:19;23.70;;;8.60;;
74369;SDS011;62805;44.644;10.942;2023-03-12T02:07:49;19.10;;;8.27;;
74369;SDS011;62805;44.644;10.942;2023-03-12T02:10:15;25.50;;;8.95;;
74369;SDS011;62805;44.644;10.942;2023-03-12T02:12:41;22.65;;;8.50;;
74369;SDS011;62805;44.644;10.942;2023-03-12T02:15:06;16.98;;;7.82;;
74369;SDS011;62805;44.644;10.942;2023-03-12T02:17:32;24.58;;;8.90;;
74369;SDS011;62805;44.644;10.942;2023-03-12T02:22:48;24.45;;;9.15;;
74369;SDS011;62805;44.644;10.942;2023-03-12T02:27:50;20.95;;;8.30;;
74369;SDS011;62805;44.644;10.942;2023-03-12T02:30:16;25.98;;;8.63;;
74369;SDS011;62805;44.644;10.942;2023-03-12T02:32:43;22.75;;;8.93;;
74369;SDS011;62805;44.644;10.942;2023-03-12T02:35:09;23.77;;;8.82;;
74369;SDS011;62805;44.644;10.942;2023-03-12T02:37:35;23.88;;;9.45;;
74369;SDS011;62805;44.644;10.942;2023-03-12T02:40:12;21.52;;;10.10;;
74369;SDS011;62805;44.644;10.942;2023-03-12T02:42:41;24.80;;;8.68;;
74369;SDS011;62805;44.644;10.942;2023-03-12T02:45:06;25.27;;;9.00;;
74369;SDS011;62805;44.644;10.942;2023-03-12T02:47:32;23.95;;;9.70;;
74369;SDS011;62805;44.644;10.942;2023-03-12T02:49:58;22.30;;;10.48;;
74369;SDS011;62805;44.644;10.942;2023-03-12T02:52:23;22.17;;;10.00;;
74369;SDS011;62805;44.644;10.942;2023-03-12T02:54:48;26.73;;;10.55;;
74369;SDS011;62805;44.644;10.942;2023-03-12T02:57:14;22.50;;;9.43;;
74369;SDS011;62805;44.644;10.942;2023-03-12T02:59:39;23.58;;;8.95;;
74369;SDS011;62805;44.644;10.942;2023-03-12T03:02:04;21.10;;;9.00;;
74369;SDS011;62805;44.644;10.942;2023-03-12T03:04:31;22.38;;;9.95;;
74369;SDS011;62805;44.644;10.942;2023-03-12T03:06:58;16.85;;;8.77;;
74369;SDS011;62805;44.644;10.942;2023-03-12T03:09:24;19.73;;;10.02;;
74369;SDS011;62805;44.644;10.942;2023-03-12T03:11:50;21.20;;;9.02;;
74369;SDS011;62805;44.644;10.942;2023-03-12T03:14:15;24.17;;;9.70;;
74369;SDS011;62805;44.644;10.942;2023-03-12T03:16:41;17.73;;;9.15;;
74369;SDS011;62805;44.644;10.942;2023-03-12T03:19:06;19.17;;;9.73;;
74369;SDS011;62805;44.644;10.942;2023-03-12T03:21:32;20.52;;;8.30;;
74369;SDS011;62805;44.644;10.942;2023-03-12T03:23:57;21.92;;;9.48;;
74369;SDS011;62805;44.644;10.942;2023-03-12T03:26:23;20.80;;;8.65;;
74369;SDS011;62805;44.644;10.942;2023-03-12T03:28:50;23.88;;;10.00;;
74369;SDS011;62805;44.644;10.942;2023-03-12T03:31:15;17.40;;;8.20;;
74369;SDS011;62805;44.644;10.942;2023-03-12T03:33:41;19.15;;;7.82;;
74369;SDS011;62805;44.644;10.942;2023-03-12T03:36:07;16.58;;;7.78;;
74369;SDS011;62805;44.644;10.942;2023-03-12T03:38:33;20.30;;;8.05;;
74369;SDS011;62805;44.644;10.942;2023-03-12T03:40:59;16.25;;;7.13;;
74369;SDS011;62805;44.644;10.942;2023-03-12T03:43:25;19.02;;;7.80;;
74369;SDS011;62805;44.644;10.942;2023-03-12T03:46:01;15.63;;;7.63;;
74369;SDS011;62805;44.644;10.942;2023-03-12T03:48:27;17.70;;;7.93;;
74369;SDS011;62805;44.644;10.942;2023-03-12T03:50:53;18.98;;;8.20;;
74369;SDS011;62805;44.644;10.942;2023-03-12T03:53:18;19.33;;;7.90;;
74369;SDS011;62805;44.644;10.942;2023-03-12T03:55:44;14.57;;;6.90;;
74369;SDS011;62805;44.644;10.942;2023-03-12T03:58:10;17.85;;;7.65;;
74369;SDS011;62805;44.644;10.942;2023-03-12T04:00:35;18.92;;;7.32;;
74369;SDS011;62805;44.644;10.942;2023-03-12T04:03:00;16.10;;;7.53;;
74369;SDS011;62805;44.644;10.942;2023-03-12T04:05:26;19.45;;;8.15;;
74369;SDS011;62805;44.644;10.942;2023-03-12T04:07:52;18.25;;;7.60;;
74369;SDS011;62805;44.644;10.942;2023-03-12T04:10:22;14.13;;;7.30;;
74369;SDS011;62805;44.644;10.942;2023-03-12T04:12:49;16.35;;;8.05;;
74369;SDS011;62805;44.644;10.942;2023-03-12T04:15:15;13.77;;;7.60;;
74369;SDS011;62805;44.644;10.942;2023-03-12T04:17:41;18.52;;;7.40;;
74369;SDS011;62805;44.644;10.942;2023-03-12T04:20:06;16.58;;;7.60;;
74369;SDS011;62805;44.644;10.942;2023-03-12T04:22:33;16.15;;;7.90;;
74369;SDS011;62805;44.644;10.942;2023-03-12T04:24:58;19.58;;;7.68;;
74369;SDS011;62805;44.644;10.942;2023-03-12T04:27:24;15.60;;;7.43;;
74369;SDS011;62805;44.644;10.942;2023-03-12T04:29:49;13.73;;;6.80;;
74369;SDS011;62805;44.644;10.942;2023-03-12T04:32:14;15.73;;;7.00;;
74369;SDS011;62805;44.644;10.942;2023-03-12T04:34:40;16.23;;;6.40;;
74369;SDS011;62805;44.644;10.942;2023-03-12T04:37:06;13.13;;;7.13;;
74369;SDS011;62805;44.644;10.942;2023-03-12T04:39:31;16.42;;;7.70;;
74369;SDS011;62805;44.644;10.942;2023-03-12T04:41:57;13.63;;;7.53;;
74369;SDS011;62805;44.644;10.942;2023-03-12T04:44:22;20.87;;;7.87;;
74369;SDS011;62805;44.644;10.942;2023-03-12T04:46:48;14.27;;;7.70;;
74369;SDS011;62805;44.644;10.942;2023-03-12T04:49:13;18.52;;;7.05;;
74369;SDS011;62805;44.644;10.942;2023-03-12T04:51:38;16.17;;;7.20;;
74369;SDS011;62805;44.644;10.942;2023-03-12T04:54:04;16.67;;;7.97;;
74369;SDS011;62805;44.644;10.942;2023-03-12T04:56:29;20.92;;;6.93;;
74369;SDS011;62805;44.644;10.942;2023-03-12T04:58:54;21.27;;;7.80;;
74369;SDS011;62805;44.644;10.942;2023-03-12T05:01:30;16.10;;;7.38;;
74369;SDS011;62805;44.644;10.942;2023-03-12T05:03:57;13.80;;;6.53;;
74369;SDS011;62805;44.644;10.942;2023-03-12T05:06:23;11.35;;;6.60;;
74369;SDS011;62805;44.644;10.942;2023-03-12T05:08:49;14.27;;;7.00;;
74369;SDS011;62805;44.644;10.942;2023-03-12T05:11:15;15.25;;;6.78;;
74369;SDS011;62805;44.644;10.942;2023-03-12T05:13:41;19.02;;;7.40;;
74369;SDS011;62805;44.644;10.942;2023-03-12T05:16:06;12.73;;;6.30;;
74369;SDS011;62805;44.644;10.942;2023-03-12T05:18:33;14.90;;;5.97;;
74369;SDS011;62805;44.644;10.942;2023-03-12T05:21:06;15.15;;;6.47;;
74369;SDS011;62805;44.644;10.942;2023-03-12T05:23:33;17.02;;;6.72;;
74369;SDS011;62805;44.644;10.942;2023-03-12T05:25:59;17.77;;;7.05;;
74369;SDS011;62805;44.644;10.942;2023-03-12T05:28:25;15.00;;;6.68;;
74369;SDS011;62805;44.644;10.942;2023-03-12T05:30:55;15.10;;;5.55;;
74369;SDS011;62805;44.644;10.942;2023-03-12T05:33:22;18.27;;;6.72;;
74369;SDS011;62805;44.644;10.942;2023-03-12T05:35:48;12.77;;;5.72;;
74369;SDS011;62805;44.644;10.942;2023-03-12T05:38:13;19.45;;;6.20;;
74369;SDS011;62805;44.644;10.942;2023-03-12T05:40:39;12.45;;;5.97;;
74369;SDS011;62805;44.644;10.942;2023-03-12T05:43:04;9.20;;;5.38;;
74369;SDS011;62805;44.644;10.942;2023-03-12T05:45:31;12.15;;;5.63;;
74369;SDS011;62805;44.644;10.942;2023-03-12T05:47:56;10.38;;;5.40;;
74369;SDS011;62805;44.644;10.942;2023-03-12T05:50:22;11.32;;;4.72;;
74369;SDS011;62805;44.644;10.942;2023-03-12T05:52:48;11.90;;;5.28;;
74369;SDS011;62805;44.644;10.942;2023-03-12T05:55:13;9.17;;;5.00;;
74369;SDS011;62805;44.644;10.942;2023-03-12T05:57:38;9.97;;;4.33;;
74369;SDS011;62805;44.644;10.942;2023-03-12T06:00:04;11.07;;;4.97;;
74369;SDS011;62805;44.644;10.942;2023-03-12T06:02:30;11.68;;;4.97;;
74369;SDS011;62805;44.644;10.942;2023-03-12T06:04:55;13.40;;;4.88;;
74369;SDS011;62805;44.644;10.942;2023-03-12T06:07:22;7.70;;;4.25;;
74369;SDS011;62805;44.644;10.942;2023-03-12T06:09:48;13.82;;;4.97;;
74369;SDS011;62805;44.644;10.942;2023-03-12T06:12:13;8.73;;;4.47;;
74369;SDS011;62805;44.644;10.942;2023-03-12T06:14:38;9.23;;;4.53;;
74369;SDS011;62805;44.644;10.942;2023-03-12T06:17:04;9.98;;;5.30;;
74369;SDS011;62805;44.644;10.942;2023-03-12T06:19:29;7.05;;;4.25;;
74369;SDS011;62805;44.644;10.942;2023-03-12T06:21:54;11.00;;;4.82;;
74369;SDS011;62805;44.644;10.942;2023-03-12T06:24:20;10.15;;;4.53;;
74369;SDS011;62805;44.644;10.942;2023-03-12T06:26:45;8.03;;;4.30;;
74369;SDS011;62805;44.644;10.942;2023-03-12T06:29:11;9.35;;;4.32;;
74369;SDS011;62805;44.644;10.942;2023-03-12T06:31:36;10.65;;;4.57;;
74369;SDS011;62805;44.644;10.942;2023-03-12T06:34:03;11.35;;;5.78;;
74369;SDS011;62805;44.644;10.942;2023-03-12T06:36:29;10.82;;;5.18;;
74369;SDS011;62805;44.644;10.942;2023-03-12T06:38:54;15.37;;;4.93;;
74369;SDS011;62805;44.644;10.942;2023-03-12T06:41:19;8.80;;;4.47;;
74369;SDS011;62805;44.644;10.942;2023-03-12T06:43:45;13.13;;;4.82;;
74369;SDS011;62805;44.644;10.942;2023-03-12T06:46:11;11.15;;;5.00;;
74369;SDS011;62805;44.644;10.942;2023-03-12T06:51:06;8.48;;;4.63;;
74369;SDS011;62805;44.644;10.942;2023-03-12T06:53:32;9.00;;;4.32;;
74369;SDS011;62805;44.644;10.942;2023-03-12T06:55:57;8.73;;;4.55;;
74369;SDS011;62805;44.644;10.942;2023-03-12T06:58:23;10.13;;;4.20;;
74369;SDS011;62805;44.644;10.942;2023-03-12T07:00:49;7.60;;;3.17;;
74369;SDS011;62805;44.644;10.942;2023-03-12T07:03:14;8.85;;;4.07;;
74369;SDS011;62805;44.644;10.942;2023-03-12T07:05:42;6.95;;;3.90;;
74369;SDS011;62805;44.644;10.942;2023-03-12T07:08:08;7.63;;;3.60;;
74369;SDS011;62805;44.644;10.942;2023-03-12T07:10:34;17.20;;;4.55;;
74369;SDS011;62805;44.644;10.942;2023-03-12T07:12:59;11.50;;;4.13;;
74369;SDS011;62805;44.644;10.942;2023-03-12T07:15:25;11.17;;;4.23;;
74369;SDS011;62805;44.644;10.942;2023-03-12T07:17:50;11.68;;;4.32;;
74369;SDS011;62805;44.644;10.942;2023-03-12T07:20:17;8.93;;;4.57;;
74369;SDS011;62805;44.644;10.942;2023-03-12T07:22:42;10.32;;;4.40;;
74369;SDS011;62805;44.644;10.942;2023-03-12T07:25:08;9.07;;;4.35;;
74369;SDS011;62805;44.644;10.942;2023-03-12T07:27:34;9.50;;;4.45;;
74369;SDS011;62805;44.644;10.942;2023-03-12T07:29:59;14.95;;;4.97;;
74369;SDS011;62805;44.644;10.942;2023-03-12T07:32:25;11.05;;;4.03;;
74369;SDS011;62805;44.644;10.942;2023-03-12T07:34:50;12.02;;;4.15;;
74369;SDS011;62805;44.644;10.942;2023-03-12T07:37:15;8.17;;;3.83;;
74369;SDS011;62805;44.644;10.942;2023-03-12T07:39:41;7.83;;;4.17;;
74369;SDS011;62805;44.644;10.942;2023-03-12T07:42:07;7.80;;;3.58;;
74369;SDS011;62805;44.644;10.942;2023-03-12T07:44:33;7.82;;;3.58;;
74369;SDS011;62805;44.644;10.942;2023-03-12T07:47:00;10.10;;;3.88;;
74369;SDS011;62805;44.644;10.942;2023-03-12T07:49:26;8.45;;;3.83;;
74369;SDS011;62805;44.644;10.942;2023-03-12T07:51:51;10.50;;;3.58;;
74369;SDS011;62805;44.644;10.942;2023-03-12T07:54:16;8.93;;;3.47;;
74369;SDS011;62805;44.644;10.942;2023-03-12T07:56:42;10.05;;;3.30;;
74369;SDS011;62805;44.644;10.942;2023-03-12T07:59:07;9.83;;;3.53;;
74369;SDS011;62805;44.644;10.942;2023-03-12T08:01:32;12.40;;;4.00;;
74369;SDS011;62805;44.644;10.942;2023-03-12T08:03:58;8.05;;;3.22;;
74369;SDS011;62805;44.644;10.942;2023-03-12T08:06:24;6.82;;;3.03;;
74369;SDS011;62805;44.644;10.942;2023-03-12T08:08:49;9.18;;;3.28;;
74369;SDS011;62805;44.644;10.942;2023-03-12T08:11:15;6.53;;;3.30;;
74369;SDS011;62805;44.644;10.942;2023-03-12T08:13:42;14.88;;;3.53;;
74369;SDS011;62805;44.644;10.942;2023-03-12T08:16:07;7.15;;;2.80;;
74369;SDS011;62805;44.644;10.942;2023-03-12T08:18:33;7.50;;;2.97;;
74369;SDS011;62805;44.644;10.942;2023-03-12T08:20:58;5.60;;;2.72;;
74369;SDS011;62805;44.644;10.942;2023-03-12T08:23:24;8.95;;;2.97;;
74369;SDS011;62805;44.644;10.942;2023-03-12T08:25:50;6.57;;;2.85;;
74369;SDS011;62805;44.644;10.942;2023-03-12T08:28:16;8.55;;;3.33;;
74369;SDS011;62805;44.644;10.942;2023-03-12T08:30:46;8.75;;;3.10;;
74369;SDS011;62805;44.644;10.942;2023-03-12T08:35:41;9.93;;;3.30;;
74369;SDS011;62805;44.644;10.942;2023-03-12T08:38:07;8.30;;;3.40;;
74369;SDS011;62805;44.644;10.942;2023-03-12T08:40:35;9.32;;;3.22;;
74369;SDS011;62805;44.644;10.942;2023-03-12T08:43:01;5.50;;;3.08;;
74369;SDS011;62805;44.644;10.942;2023-03-12T08:45:26;6.78;;;3.08;;
74369;SDS011;62805;44.644;10.942;2023-03-12T08:47:52;8.05;;;2.90;;
74369;SDS011;62805;44.644;10.942;2023-03-12T08:50:17;8.55;;;3.15;;
74369;SDS011;62805;44.644;10.942;2023-03-12T08:52:46;5.90;;;2.47;;
74369;SDS011;62805;44.644;10.942;2023-03-12T08:55:11;9.20;;;2.55;;
74369;SDS011;62805;44.644;10.942;2023-03-12T08:57:37;8.02;;;2.78;;
74369;SDS011;62805;44.644;10.942;2023-03-12T09:00:03;7.75;;;3.08;;
74369;SDS011;62805;44.644;10.942;2023-03-12T09:02:30;10.65;;;2.83;;
74369;SDS011;62805;44.644;10.942;2023-03-12T09:04:56;7.07;;;2.60;;
74369;SDS011;62805;44.644;10.942;2023-03-12T09:07:21;5.33;;;2.37;;
74369;SDS011;62805;44.644;10.942;2023-03-12T09:09:46;7.20;;;2.38;;
74369;SDS011;62805;44.644;10.942;2023-03-12T09:12:12;5.97;;;2.50;;
74369;SDS011;62805;44.644;10.942;2023-03-12T09:14:37;7.50;;;2.53;;
74369;SDS011;62805;44.644;10.942;2023-03-12T09:17:03;7.88;;;2.53;;
74369;SDS011;62805;44.644;10.942;2023-03-12T09:19:28;8.67;;;2.43;;
74369;SDS011;62805;44.644;10.942;2023-03-12T09:21:54;7.10;;;2.77;;
74369;SDS011;62805;44.644;10.942;2023-03-12T09:24:19;6.75;;;2.30;;
74369;SDS011;62805;44.644;10.942;2023-03-12T09:26:44;7.80;;;2.20;;
74369;SDS011;62805;44.644;10.942;2023-03-12T09:29:11;6.07;;;1.92;;
74369;SDS011;62805;44.644;10.942;2023-03-12T09:31:36;7.67;;;2.00;;
74369;SDS011;62805;44.644;10.942;2023-03-12T09:34:02;5.25;;;2.00;;
74369;SDS011;62805;44.644;10.942;2023-03-12T09:36:28;6.05;;;2.38;;
74369;SDS011;62805;44.644;10.942;2023-03-12T09:38:54;7.72;;;2.20;;
74369;SDS011;62805;44.644;10.942;2023-03-12T09:41:20;10.20;;;3.60;;
74369;SDS011;62805;44.644;10.942;2023-03-12T09:43:57;8.35;;;2.33;;
74369;SDS011;62805;44.644;10.942;2023-03-12T09:46:49;13.18;;;2.00;;
74369;SDS011;62805;44.644;10.942;2023-03-12T09:49:24;8.25;;;2.65;;
74369;SDS011;62805;44.644;10.942;2023-03-12T09:51:55;6.03;;;2.40;;
74369;SDS011;62805;44.644;10.942;2023-03-12T09:56:50;7.45;;;2.42;;
74369;SDS011;62805;44.644;10.942;2023-03-12T09:59:16;8.52;;;1.85;;
74369;SDS011;62805;44.644;10.942;2023-03-12T10:01:52;7.10;;;2.10;;
74369;SDS011;62805;44.644;10.942;2023-03-12T10:04:30;10.25;;;2.40;;
74369;SDS011;62805;44.644;10.942;2023-03-12T10:07:14;8.32;;;2.38;;
74369;SDS011;62805;44.644;10.942;2023-03-12T10:09:48;6.47;;;1.73;;
74369;SDS011;62805;44.644;10.942;2023-03-12T10:18:20;9.65;;;2.25;;
74369;SDS011;62805;44.644;10.942;2023-03-12T10:26:04;13.98;;;3.25;;
74369;SDS011;62805;44.644;10.942;2023-03-12T10:28:45;9.63;;;2.40;;
74369;SDS011;62805;44.644;10.942;2023-03-12T10:33:51;6.38;;;1.98;;
74369;SDS011;62805;44.644;10.942;2023-03-12T10:36:42;10.40;;;1.65;;
74369;SDS011;62805;44.644;10.942;2023-03-12T10:39:12;9.20;;;2.10;;
74369;SDS011;62805;44.644;10.942;2023-03-12T10:41:40;6.55;;;2.28;;
74369;SDS011;62805;44.644;10.942;2023-03-12T10:44:07;6.65;;;2.22;;
74369;SDS011;62805;44.644;10.942;2023-03-12T10:49:21;10.70;;;2.80;;
74369;SDS011;62805;44.644;10.942;2023-03-12T10:51:57;10.27;;;2.20;;
74369;SDS011;62805;44.644;10.942;2023-03-12T10:54:34;9.50;;;2.55;;
74369;SDS011;62805;44.644;10.942;2023-03-12T10:57:05;6.35;;;1.85;;
74369;SDS011;62805;44.644;10.942;2023-03-12T10:59:35;10.20;;;2.90;;
74369;SDS011;62805;44.644;10.942;2023-03-12T11:02:11;10.23;;;1.95;;
74369;SDS011;62805;44.644;10.942;2023-03-12T11:04:51;9.13;;;2.42;;
74369;SDS011;62805;44.644;10.942;2023-03-12T11:07:18;7.55;;;2.50;;
74369;SDS011;62805;44.644;10.942;2023-03-12T11:13:00;7.65;;;2.20;;
74369;SDS011;62805;44.644;10.942;2023-03-12T11:15:40;12.57;;;3.05;;
74369;SDS011;62805;44.644;10.942;2023-03-12T11:18:20;8.60;;;2.67;;
74369;SDS011;62805;44.644;10.942;2023-03-12T11:23:33;7.35;;;2.67;;
74369;SDS011;62805;44.644;10.942;2023-03-12T11:26:03;10.65;;;3.83;;
74369;SDS011;62805;44.644;10.942;2023-03-12T11:28:35;6.82;;;2.38;;
74369;SDS011;62805;44.644;10.942;2023-03-12T11:31:02;7.47;;;2.80;;
74369;SDS011;62805;44.644;10.942;2023-03-12T11:33:28;12.05;;;3.38;;
74369;SDS011;62805;44.644;10.942;2023-03-12T11:53:02;7.18;;;2.60;;
74369;SDS011;62805;44.644;10.942;2023-03-12T11:55:15;7.40;;;2.70;;
74369;SDS011;62805;44.644;10.942;2023-03-12T12:09:07;7.82;;;3.13;;
74369;SDS011;62805;44.644;10.942;2023-03-12T12:11:55;6.35;;;3.05;;
74369;SDS011;62805;44.644;10.942;2023-03-12T12:17:32;13.73;;;3.33;;
74369;SDS011;62805;44.644;10.942;2023-03-12T12:25:54;6.28;;;2.95;;
74369;SDS011;62805;44.644;10.942;2023-03-12T12:36:26;10.20;;;3.00;;
74369;SDS011;62805;44.644;10.942;2023-03-12T12:38:56;8.93;;;2.63;;
74369;SDS011;62805;44.644;10.942;2023-03-12T12:41:30;6.80;;;3.10;;
74369;SDS011;62805;44.644;10.942;2023-03-12T12:43:58;6.60;;;3.22;;
74369;SDS011;62805;44.644;10.942;2023-03-12T12:47:09;12.57;;;3.60;;
74369;SDS011;62805;44.644;10.942;2023-03-12T12:49:21;11.95;;;3.45;;
74369;SDS011;62805;44.644;10.942;2023-03-12T12:51:50;10.30;;;3.53;;
74369;SDS011;62805;44.644;10.942;2023-03-12T12:54:40;8.80;;;3.50;;
74369;SDS011;62805;44.644;10.942;2023-03-12T12:57:16;10.05;;;3.25;;
74369;SDS011;62805;44.644;10.942;2023-03-12T13:02:45;11.20;;;3.30;;
74369;SDS011;62805;44.644;10.942;2023-03-12T13:07:50;9.93;;;3.17;;
74369;SDS011;62805;44.644;10.942;2023-03-12T13:12:58;11.20;;;3.65;;
74369;SDS011;62805;44.644;10.942;2023-03-12T13:20:19;11.07;;;3.50;;
74369;SDS011;62805;44.644;10.942;2023-03-12T13:25:27;9.85;;;3.40;;
74369;SDS011;62805;44.644;10.942;2023-03-12T13:28:15;11.60;;;3.25;;
74369;SDS011;62805;44.644;10.942;2023-03-12T13:30:56;7.72;;;3.80;;
74369;SDS011;62805;44.644;10.942;2023-03-12T13:41:29;9.10;;;2.95;;
74369;SDS011;62805;44.644;10.942;2023-03-12T13:52:17;8.38;;;3.30;;
74369;SDS011;62805;44.644;10.942;2023-03-12T13:55:27;7.35;;;3.33;;
74369;SDS011;62805;44.644;10.942;2023-03-12T13:58:06;9.63;;;3.63;;
74369;SDS011;62805;44.644;10.942;2023-03-12T14:03:10;9.90;;;3.10;;
74369;SDS011;62805;44.644;10.942;2023-03-12T14:05:56;12.10;;;3.15;;
74369;SDS011;62805;44.644;10.942;2023-03-12T14:08:27;9.70;;;3.20;;
74369;SDS011;62805;44.644;10.942;2023-03-12T14:11:15;9.20;;;4.32;;
74369;SDS011;62805;44.644;10.942;2023-03-12T14:13:50;7.57;;;2.90;;
74369;SDS011;62805;44.644;10.942;2023-03-12T14:16:29;10.52;;;3.13;;
74369;SDS011;62805;44.644;10.942;2023-03-12T14:19:05;11.05;;;3.17;;
74369;SDS011;62805;44.644;10.942;2023-03-12T14:21:33;7.85;;;2.90;;
74369;SDS011;62805;44.644;10.942;2023-03-12T14:24:00;8.35;;;2.88;;
74369;SDS011;62805;44.644;10.942;2023-03-12T14:26:26;10.30;;;2.90;;
74369;SDS011;62805;44.644;10.942;2023-03-12T14:28:58;10.80;;;3.03;;
74369;SDS011;62805;44.644;10.942;2023-03-12T14:31:25;8.57;;;2.60;;
74369;SDS011;62805;44.644;10.942;2023-03-12T14:36:57;12.23;;;4.20;;
74369;SDS011;62805;44.644;10.942;2023-03-12T14:39:29;13.45;;;5.20;;
74369;SDS011;62805;44.644;10.942;2023-03-12T14:42:01;12.00;;;2.65;;
74369;SDS011;62805;44.644;10.942;2023-03-12T14:44:29;6.85;;;2.67;;
74369;SDS011;62805;44.644;10.942;2023-03-12T14:46:59;9.73;;;2.58;;
74369;SDS011;62805;44.644;10.942;2023-03-12T14:49:26;9.98;;;2.80;;
74369;SDS011;62805;44.644;10.942;2023-03-12T14:51:52;7.75;;;2.33;;
74369;SDS011;62805;44.644;10.942;2023-03-12T14:54:18;8.35;;;2.95;;
74369;SDS011;62805;44.644;10.942;2023-03-12T14:56:45;14.60;;;3.70;;
74369;SDS011;62805;44.644;10.942;2023-03-12T14:59:20;9.48;;;2.65;;
74369;SDS011;62805;44.644;10.942;2023-03-12T15:01:47;7.38;;;2.97;;
74369;SDS011;62805;44.644;10.942;2023-03-12T15:04:13;12.20;;;3.38;;
74369;SDS011;62805;44.644;10.942;2023-03-12T15:06:59;11.57;;;3.92;;
74369;SDS011;62805;44.644;10.942;2023-03-12T15:09:28;11.35;;;3.10;;
74369;SDS011;62805;44.644;10.942;2023-03-12T15:11:58;8.27;;;3.13;;
74369;SDS011;62805;44.644;10.942;2023-03-12T15:14:26;9.48;;;2.63;;
74369;SDS011;62805;44.644;10.942;2023-03-12T15:16:53;8.80;;;2.67;;
74369;SDS011;62805;44.644;10.942;2023-03-12T15:19:20;10.77;;;2.58;;
74369;SDS011;62805;44.644;10.942;2023-03-12T15:21:48;7.63;;;2.83;;
74369;SDS011;62805;44.644;10.942;2023-03-12T15:24:14;7.57;;;2.60;;
74369;SDS011;62805;44.644;10.942;2023-03-12T15:26:40;6.97;;;2.13;;
74369;SDS011;62805;44.644;10.942;2023-03-12T15:31:47;9.40;;;2.30;;
74369;SDS011;62805;44.644;10.942;2023-03-12T15:34:14;10.35;;;2.38;;
74369;SDS011;62805;44.644;10.942;2023-03-12T15:36:56;10.25;;;2.88;;
74369;SDS011;62805;44.644;10.942;2023-03-12T15:41:54;14.85;;;2.80;;
74369;SDS011;62805;44.644;10.942;2023-03-12T15:44:21;9.63;;;2.55;;
74369;SDS011;62805;44.644;10.942;2023-03-12T15:46:48;10.20;;;2.17;;
74369;SDS011;62805;44.644;10.942;2023-03-12T15:49:19;8.40;;;2.10;;
74369;SDS011;62805;44.644;10.942;2023-03-12T15:54:30;7.43;;;2.20;;
74369;SDS011;62805;44.644;10.942;2023-03-12T15:59:48;7.20;;;2.00;;
74369;SDS011;62805;44.644;10.942;2023-03-12T16:02:32;6.97;;;2.35;;
74369;SDS011;62805;44.644;10.942;2023-03-12T16:04:59;8.80;;;2.10;;
74369;SDS011;62805;44.644;10.942;2023-03-12T16:07:24;7.93;;;2.73;;
74369;SDS011;62805;44.644;10.942;2023-03-12T16:09:50;15.77;;;2.20;;
74369;SDS011;62805;44.644;10.942;2023-03-12T16:12:16;7.40;;;2.70;;
74369;SDS011;62805;44.644;10.942;2023-03-12T16:14:41;15.17;;;3.30;;
74369;SDS011;62805;44.644;10.942;2023-03-12T16:17:11;8.63;;;2.22;;
74369;SDS011;62805;44.644;10.942;2023-03-12T16:19:38;8.63;;;2.20;;
74369;SDS011;62805;44.644;10.942;2023-03-12T16:22:03;7.07;;;2.20;;
74369;SDS011;62805;44.644;10.942;2023-03-12T16:24:28;12.45;;;2.55;;
74369;SDS011;62805;44.644;10.942;2023-03-12T16:26:55;10.43;;;3.25;;
74369;SDS011;62805;44.644;10.942;2023-03-12T16:29:30;11.18;;;2.42;;
74369;SDS011;62805;44.644;10.942;2023-03-12T16:31:57;9.63;;;2.75;;
74369;SDS011;62805;44.644;10.942;2023-03-12T16:37:02;9.55;;;2.95;;
74369;SDS011;62805;44.644;10.942;2023-03-12T16:39:28;8.88;;;2.38;;
74369;SDS011;62805;44.644;10.942;2023-03-12T16:41:57;7.43;;;2.15;;